sensor_id;sensor_type;location;lat;lon;timestamp;temperature;humidity
61351;DHT22;47119;49.130;9.218;2023-08-31T00:01:33;19.28;74.68
61351;DHT22;47119;49.130;9.218;2023-08-31T00:04:01;19.39;74.66
61351;DHT22;47119;49.130;9.218;2023-08-31T00:06:29;19.39;74.09
61351;DHT22;47119;49.130;9.218;2023-08-31T00:08:57;19.37;74.15
61351;DHT22;47119;49.130;9.218;2023-08-31T00:11:24;19.46;74.20
61351;DHT22;47119;49.130;9.218;2023-08-31T00:13:51;19.30;74.42
61351;DHT22;47119;49.130;9.218;2023-08-31T00:16:23;19.43;74.02
61351;DHT22;47119;49.130;9.218;2023-08-31T00:18:53;19.47;74.18
61351;DHT22;47119;49.130;9.218;2023-08-31T00:21:21;19.30;74.27
61351;DHT22;47119;49.130;9.218;2023-08-31T00:23:48;19.35;73.93
61351;DHT22;47119;49.130;9.218;2023-08-31T00:26:15;19.13;74.44
61351;DHT22;47119;49.130;9.218;2023-08-31T00:28:46;18.99;74.70
61351;DHT22;47119;49.130;9.218;2023-08-31T00:31:14;19.21;74.43
61351;DHT22;47119;49.130;9.218;2023-08-31T00:33:41;19.30;74.51
61351;DHT22;47119;49.130;9.218;2023-08-31T00:36:10;19.21;74.06
61351;DHT22;47119;49.130;9.218;2023-08-31T00:38:37;19.17;74.51
61351;DHT22;47119;49.130;9.218;2023-08-31T00:41:07;18.96;74.94
61351;DHT22;47119;49.130;9.218;2023-08-31T00:43:34;18.85;75.19
61351;DHT22;47119;49.130;9.218;2023-08-31T00:46:02;18.86;75.46
61351;DHT22;47119;49.130;9.218;2023-08-31T00:48:29;18.82;75.20
61351;DHT22;47119;49.130;9.218;2023-08-31T00:50:57;18.85;75.65
61351;DHT22;47119;49.130;9.218;2023-08-31T00:53:28;18.82;75.69
61351;DHT22;47119;49.130;9.218;2023-08-31T00:55:59;18.80;75.66
61351;DHT22;47119;49.130;9.218;2023-08-31T00:58:26;18.79;75.69
61351;DHT22;47119;49.130;9.218;2023-08-31T01:01:00;18.83;75.74
61351;DHT22;47119;49.130;9.218;2023-08-31T01:03:42;18.80;75.55
61351;DHT22;47119;49.130;9.218;2023-08-31T01:06:24;18.77;75.81
61351;DHT22;47119;49.130;9.218;2023-08-31T01:09:10;18.76;75.50
61351;DHT22;47119;49.130;9.218;2023-08-31T01:11:52;18.83;75.69
61351;DHT22;47119;49.130;9.218;2023-08-31T01:14:29;18.87;75.34
61351;DHT22;47119;49.130;9.218;2023-08-31T01:17:02;18.82;75.62
61351;DHT22;47119;49.130;9.218;2023-08-31T01:19:40;18.80;75.75
61351;DHT22;47119;49.130;9.218;2023-08-31T01:22:21;18.68;75.86
61351;DHT22;47119;49.130;9.218;2023-08-31T01:24:58;18.87;75.23
61351;DHT22;47119;49.130;9.218;2023-08-31T01:27:30;18.73;75.68
61351;DHT22;47119;49.130;9.218;2023-08-31T01:29:58;18.69;75.80
61351;DHT22;47119;49.130;9.218;2023-08-31T01:32:25;18.66;76.02
61351;DHT22;47119;49.130;9.218;2023-08-31T01:34:53;18.79;75.84
61351;DHT22;47119;49.130;9.218;2023-08-31T01:37:27;18.75;75.62
61351;DHT22;47119;49.130;9.218;2023-08-31T05:10:30;18.47;74.31
61351;DHT22;47119;49.130;9.218;2023-08-31T05:12:57;18.45;74.62
61351;DHT22;47119;49.130;9.218;2023-08-31T05:15:24;18.56;74.13
61351;DHT22;47119;49.130;9.218;2023-08-31T05:17:55;18.45;74.60
61351;DHT22;47119;49.130;9.218;2023-08-31T05:20:22;18.48;74.41
61351;DHT22;47119;49.130;9.218;2023-08-31T05:22:53;18.48;74.42
61351;DHT22;47119;49.130;9.218;2023-08-31T05:25:20;18.52;74.25
61351;DHT22;47119;49.130;9.218;2023-08-31T05:27:49;18.51;74.74
61351;DHT22;47119;49.130;9.218;2023-08-31T05:30:17;18.56;74.22
61351;DHT22;47119;49.130;9.218;2023-08-31T05:32:44;18.80;73.40
61351;DHT22;47119;49.130;9.218;2023-08-31T05:35:12;18.96;72.98
61351;DHT22;47119;49.130;9.218;2023-08-31T05:37:39;18.89;73.07
61351;DHT22;47119;49.130;9.218;2023-08-31T05:40:08;18.82;72.84
61351;DHT22;47119;49.130;9.218;2023-08-31T05:42:36;18.86;73.01
61351;DHT22;47119;49.130;9.218;2023-08-31T05:45:09;18.79;72.85
61351;DHT22;47119;49.130;9.218;2023-08-31T05:47:44;18.73;72.47
61351;DHT22;47119;49.130;9.218;2023-08-31T05:50:15;18.65;73.10
61351;DHT22;47119;49.130;9.218;2023-08-31T05:52:42;18.68;72.54
61351;DHT22;47119;49.130;9.218;2023-08-31T05:55:09;18.87;72.87
61351;DHT22;47119;49.130;9.218;2023-08-31T05:57:37;19.10;71.89
61351;DHT22;47119;49.130;9.218;2023-08-31T06:00:06;19.10;72.28
61351;DHT22;47119;49.130;9.218;2023-08-31T06:02:41;19.10;71.54
61351;DHT22;47119;49.130;9.218;2023-08-31T06:05:10;18.89;71.89
61351;DHT22;47119;49.130;9.218;2023-08-31T06:07:39;19.08;72.05
61351;DHT22;47119;49.130;9.218;2023-08-31T06:10:07;18.90;72.37
61351;DHT22;47119;49.130;9.218;2023-08-31T06:12:34;19.16;71.98
61351;DHT22;47119;49.130;9.218;2023-08-31T06:15:02;18.95;71.98
61351;DHT22;47119;49.130;9.218;2023-08-31T06:17:33;18.92;71.76
61351;DHT22;47119;49.130;9.218;2023-08-31T06:20:01;18.82;72.40
61351;DHT22;47119;49.130;9.218;2023-08-31T06:22:30;18.87;72.66
61351;DHT22;47119;49.130;9.218;2023-08-31T06:25:01;19.06;71.81
61351;DHT22;47119;49.130;9.218;2023-08-31T06:27:30;19.04;71.30
61351;DHT22;47119;49.130;9.218;2023-08-31T06:29:57;19.06;71.51
61351;DHT22;47119;49.130;9.218;2023-08-31T06:32:24;19.08;71.79
61351;DHT22;47119;49.130;9.218;2023-08-31T06:34:54;19.21;71.56
61351;DHT22;47119;49.130;9.218;2023-08-31T06:37:21;19.18;71.33
61351;DHT22;47119;49.130;9.218;2023-08-31T06:39:49;19.21;71.56
61351;DHT22;47119;49.130;9.218;2023-08-31T06:42:16;19.04;71.02
61351;DHT22;47119;49.130;9.218;2023-08-31T06:44:43;19.11;71.46
61351;DHT22;47119;49.130;9.218;2023-08-31T06:47:10;19.14;71.04
61351;DHT22;47119;49.130;9.218;2023-08-31T06:49:39;19.23;71.14
61351;DHT22;47119;49.130;9.218;2023-08-31T06:52:07;19.28;71.24
61351;DHT22;47119;49.130;9.218;2023-08-31T06:54:35;19.30;70.86
61351;DHT22;47119;49.130;9.218;2023-08-31T06:57:02;19.21;70.98
61351;DHT22;47119;49.130;9.218;2023-08-31T06:59:29;19.03;71.27
61351;DHT22;47119;49.130;9.218;2023-08-31T07:01:57;19.00;70.93
61351;DHT22;47119;49.130;9.218;2023-08-31T07:04:24;19.18;71.49
61351;DHT22;47119;49.130;9.218;2023-08-31T07:06:53;19.18;70.85
61351;DHT22;47119;49.130;9.218;2023-08-31T07:09:21;19.20;71.35
61351;DHT22;47119;49.130;9.218;2023-08-31T07:11:48;19.27;71.02
61351;DHT22;47119;49.130;9.218;2023-08-31T07:14:16;19.26;70.95
61351;DHT22;47119;49.130;9.218;2023-08-31T07:16:43;19.10;71.17
61351;DHT22;47119;49.130;9.218;2023-08-31T07:19:10;19.14;70.67
61351;DHT22;47119;49.130;9.218;2023-08-31T07:21:37;19.00;70.26
61351;DHT22;47119;49.130;9.218;2023-08-31T07:24:05;19.00;71.06
61351;DHT22;47119;49.130;9.218;2023-08-31T07:26:34;19.13;70.24
61351;DHT22;47119;49.130;9.218;2023-08-31T07:29:01;19.16;70.80
61351;DHT22;47119;49.130;9.218;2023-08-31T07:31:30;19.27;70.79
61351;DHT22;47119;49.130;9.218;2023-08-31T07:33:57;19.32;70.42
61351;DHT22;47119;49.130;9.218;2023-08-31T07:36:25;19.18;70.17
61351;DHT22;47119;49.130;9.218;2023-08-31T07:38:52;19.17;70.77
61351;DHT22;47119;49.130;9.218;2023-08-31T07:41:19;19.20;70.51
61351;DHT22;47119;49.130;9.218;2023-08-31T07:43:48;19.11;71.01
61351;DHT22;47119;49.130;9.218;2023-08-31T07:46:18;19.13;70.88
61351;DHT22;47119;49.130;9.218;2023-08-31T20:57:10;18.85;76.16
61351;DHT22;47119;49.130;9.218;2023-08-31T20:59:39;18.83;76.15
61351;DHT22;47119;49.130;9.218;2023-08-31T21:02:07;18.85;76.24
61351;DHT22;47119;49.130;9.218;2023-08-31T21:04:35;18.82;76.49
61351;DHT22;47119;49.130;9.218;2023-08-31T21:07:02;18.82;76.65
61351;DHT22;47119;49.130;9.218;2023-08-31T21:09:30;18.85;77.03
61351;DHT22;47119;49.130;9.218;2023-08-31T21:11:57;18.73;76.95
61351;DHT22;47119;49.130;9.218;2023-08-31T21:14:26;18.77;77.25
61351;DHT22;47119;49.130;9.218;2023-08-31T21:16:56;18.83;77.10
61351;DHT22;47119;49.130;9.218;2023-08-31T21:19:23;18.77;76.99
61351;DHT22;47119;49.130;9.218;2023-08-31T21:21:53;18.83;77.31
61351;DHT22;47119;49.130;9.218;2023-08-31T21:24:20;18.80;77.47
61351;DHT22;47119;49.130;9.218;2023-08-31T21:26:51;18.80;77.27
61351;DHT22;47119;49.130;9.218;2023-08-31T21:29:18;18.82;77.19
61351;DHT22;47119;49.130;9.218;2023-08-31T21:31:47;18.80;77.19
61351;DHT22;47119;49.130;9.218;2023-08-31T21:34:14;18.79;77.36
61351;DHT22;47119;49.130;9.218;2023-08-31T21:36:43;18.83;77.31
61351;DHT22;47119;49.130;9.218;2023-08-31T21:39:11;18.73;77.02
61351;DHT22;47119;49.130;9.218;2023-08-31T21:41:40;18.79;76.82
61351;DHT22;47119;49.130;9.218;2023-08-31T21:44:07;18.95;76.49
61351;DHT22;47119;49.130;9.218;2023-08-31T21:46:38;18.86;77.00
61351;DHT22;47119;49.130;9.218;2023-08-31T21:49:08;18.85;76.74
61351;DHT22;47119;49.130;9.218;2023-08-31T21:51:37;18.83;76.87
61351;DHT22;47119;49.130;9.218;2023-08-31T21:54:05;18.77;77.44
61351;DHT22;47119;49.130;9.218;2023-08-31T21:56:56;18.72;77.69
61351;DHT22;47119;49.130;9.218;2023-08-31T21:59:26;18.70;77.62
61351;DHT22;47119;49.130;9.218;2023-08-31T22:01:53;18.76;77.43
61351;DHT22;47119;49.130;9.218;2023-08-31T22:04:21;18.70;77.47
61351;DHT22;47119;49.130;9.218;2023-08-31T22:06:49;18.66;77.63
61351;DHT22;47119;49.130;9.218;2023-08-31T22:09:16;18.79;76.64
61351;DHT22;47119;49.130;9.218;2023-08-31T22:11:48;18.83;76.74
61351;DHT22;47119;49.130;9.218;2023-08-31T22:14:15;18.70;77.04
61351;DHT22;47119;49.130;9.218;2023-08-31T22:16:48;18.70;77.47
61351;DHT22;47119;49.130;9.218;2023-08-31T22:19:15;18.62;77.64
61351;DHT22;47119;49.130;9.218;2023-08-31T22:21:46;18.65;77.40
61351;DHT22;47119;49.130;9.218;2023-08-31T22:24:16;18.62;77.45
61351;DHT22;47119;49.130;9.218;2023-08-31T22:26:45;18.69;77.44
61351;DHT22;47119;49.130;9.218;2023-08-31T22:29:13;18.82;76.47
61351;DHT22;47119;49.130;9.218;2023-08-31T22:31:43;18.82;76.88
61351;DHT22;47119;49.130;9.218;2023-08-31T22:34:15;18.70;77.03
61351;DHT22;47119;49.130;9.218;2023-08-31T22:36:48;18.72;77.31
61351;DHT22;47119;49.130;9.218;2023-08-31T22:39:17;18.63;77.36
61351;DHT22;47119;49.130;9.218;2023-08-31T22:41:49;18.60;77.21
61351;DHT22;47119;49.130;9.218;2023-08-31T22:44:16;18.66;77.04
61351;DHT22;47119;49.130;9.218;2023-08-31T22:46:47;18.62;77.16
61351;DHT22;47119;49.130;9.218;2023-08-31T22:49:14;18.60;77.34
61351;DHT22;47119;49.130;9.218;2023-08-31T22:51:47;18.62;77.34
61351;DHT22;47119;49.130;9.218;2023-08-31T22:54:17;18.65;77.30
61351;DHT22;47119;49.130;9.218;2023-08-31T22:56:46;18.72;77.24
61351;DHT22;47119;49.130;9.218;2023-08-31T22:59:13;18.68;77.28
61351;DHT22;47119;49.130;9.218;2023-08-31T23:01:40;18.66;77.35
61351;DHT22;47119;49.130;9.218;2023-08-31T23:04:09;18.66;77.07
61351;DHT22;47119;49.130;9.218;2023-08-31T23:06:36;18.63;77.51
61351;DHT22;47119;49.130;9.218;2023-08-31T23:09:09;18.63;77.74
61351;DHT22;47119;49.130;9.218;2023-08-31T23:11:39;18.72;77.47
61351;DHT22;47119;49.130;9.218;2023-08-31T23:14:06;18.73;77.36
61351;DHT22;47119;49.130;9.218;2023-08-31T23:16:33;18.63;77.70
61351;DHT22;47119;49.130;9.218;2023-08-31T23:19:02;18.68;77.49
61351;DHT22;47119;49.130;9.218;2023-08-31T23:21:34;18.51;77.96
61351;DHT22;47119;49.130;9.218;2023-08-31T23:24:01;18.49;77.77
61351;DHT22;47119;49.130;9.218;2023-08-31T23:26:32;18.49;77.67
61351;DHT22;47119;49.130;9.218;2023-08-31T23:29:01;18.51;77.69
61351;DHT22;47119;49.130;9.218;2023-08-31T23:31:28;18.56;77.52
61351;DHT22;47119;49.130;9.218;2023-08-31T23:33:55;18.75;76.62
61351;DHT22;47119;49.130;9.218;2023-08-31T23:36:26;18.90;75.87
61351;DHT22;47119;49.130;9.218;2023-08-31T23:38:54;18.72;77.18
61351;DHT22;47119;49.130;9.218;2023-08-31T23:41:21;18.68;77.24
61351;DHT22;47119;49.130;9.218;2023-08-31T23:43:49;18.68;76.95
61351;DHT22;47119;49.130;9.218;2023-08-31T23:46:19;18.70;76.84
61351;DHT22;47119;49.130;9.218;2023-08-31T23:48:46;18.69;77.51
61351;DHT22;47119;49.130;9.218;2023-08-31T23:51:13;18.73;77.19
61351;DHT22;47119;49.130;9.218;2023-08-31T23:53:42;18.63;78.19
61351;DHT22;47119;49.130;9.218;2023-08-31T23:56:11;18.58;78.21
61351;DHT22;47119;49.130;9.218;2023-08-31T23:58:40;18.73;77.12
